createdAt,value
2017-12-06T00:00:05.822Z,22.71
2017-12-06T00:00:18.932Z,22.73
2017-12-06T00:00:32.066Z,22.76
2017-12-06T00:00:44.215Z,22.7
2017-12-06T00:00:57.322Z,22.7
2017-12-06T00:01:10.397Z,22.67
2017-12-06T00:01:23.428Z,22.71
2017-12-06T00:01:36.057Z,22.67
2017-12-06T00:01:48.706Z,22.7
2017-12-06T00:02:01.352Z,22.73
2017-12-06T00:02:13.984Z,22.67
2017-12-06T00:02:27.098Z,22.75
2017-12-06T00:02:40.166Z,22.7
2017-12-06T00:02:53.199Z,22.64
2017-12-06T00:03:06.325Z,22.7
2017-12-06T00:03:18.980Z,22.66
2017-12-06T00:03:31.626Z,22.75
2017-12-06T00:03:44.358Z,22.67
2017-12-06T00:03:57.446Z,22.79
2017-12-06T00:04:10.534Z,22.71
2017-12-06T00:04:23.673Z,22.75
2017-12-06T00:04:36.305Z,22.79
2017-12-06T00:04:48.972Z,22.73
2017-12-06T00:05:02.144Z,22.81
2017-12-06T00:05:15.222Z,22.75
2017-12-06T00:05:28.399Z,22.75
2017-12-06T00:05:41.521Z,22.76
2017-12-06T00:05:54.599Z,22.78
2017-12-06T00:06:07.729Z,22.79
2017-12-06T00:06:20.379Z,22.66
2017-12-06T00:06:33.499Z,22.75
2017-12-06T00:06:46.628Z,22.71
2017-12-06T00:06:59.715Z,22.75
2017-12-06T00:07:12.895Z,22.75
2017-12-06T00:07:26.074Z,22.79
2017-12-06T00:07:38.748Z,22.76
2017-12-06T00:07:51.869Z,22.78
2017-12-06T00:08:05.472Z,22.86
2017-12-06T00:08:18.557Z,22.79
2017-12-06T00:08:31.173Z,22.67
2017-12-06T00:08:44.254Z,22.71
2017-12-06T00:08:56.891Z,22.76
2017-12-06T00:09:09.491Z,22.82
2017-12-06T00:09:21.633Z,22.75
2017-12-06T00:09:33.786Z,22.75
2017-12-06T00:09:45.937Z,22.78
2017-12-06T00:09:59.046Z,22.71
2017-12-06T00:10:12.110Z,22.78
2017-12-06T00:10:24.729Z,22.75
2017-12-06T00:10:37.414Z,22.81
2017-12-06T00:10:50.583Z,22.73
2017-12-06T00:11:03.695Z,22.71
2017-12-06T00:11:16.768Z,22.73
2017-12-06T00:11:29.887Z,22.73
2017-12-06T00:11:43.019Z,22.64
2017-12-06T00:11:56.132Z,22.64
2017-12-06T00:12:08.765Z,22.71
2017-12-06T00:12:21.884Z,22.69
2017-12-06T00:12:34.969Z,22.7
2017-12-06T00:12:47.623Z,22.64
2017-12-06T00:13:00.390Z,22.69
2017-12-06T00:13:13.480Z,22.64
2017-12-06T00:13:26.657Z,22.67
2017-12-06T00:13:39.750Z,22.63
2017-12-06T00:13:52.332Z,22.7
2017-12-06T00:14:04.510Z,22.66
2017-12-06T00:14:17.686Z,22.69
2017-12-06T00:14:30.369Z,22.71
2017-12-06T00:14:43.032Z,22.73
2017-12-06T00:14:56.152Z,22.67
2017-12-06T00:15:09.267Z,22.73
2017-12-06T00:15:22.387Z,22.76
2017-12-06T00:15:35.017Z,22.7
2017-12-06T00:15:49.632Z,22.71
2017-12-06T00:16:01.763Z,22.66
2017-12-06T00:16:14.363Z,22.7
2017-12-06T00:16:26.980Z,22.69
2017-12-06T00:16:39.641Z,22.7
2017-12-06T00:16:52.262Z,22.71
2017-12-06T00:17:05.341Z,22.78
2017-12-06T00:17:18.421Z,22.79
2017-12-06T00:17:31.513Z,22.78
2017-12-06T00:17:44.686Z,22.71
2017-12-06T00:17:57.792Z,22.75
2017-12-06T00:18:10.931Z,22.64
2017-12-06T00:18:24.062Z,22.78
2017-12-06T00:18:37.209Z,22.67
2017-12-06T00:18:49.879Z,22.73
2017-12-06T00:19:02.498Z,22.69
2017-12-06T00:19:15.591Z,22.66
2017-12-06T00:19:28.698Z,22.69
2017-12-06T00:19:41.314Z,22.67
2017-12-06T00:19:53.008Z,22.63
2017-12-06T00:20:05.648Z,22.71
2017-12-06T00:20:18.761Z,22.64
2017-12-06T00:20:32.176Z,22.67
2017-12-06T00:20:44.871Z,22.66
2017-12-06T00:20:57.615Z,22.66
2017-12-06T00:21:10.703Z,22.7
2017-12-06T00:21:23.401Z,22.7
2017-12-06T00:21:36.474Z,22.69
2017-12-06T00:21:49.601Z,22.67
2017-12-06T00:22:02.684Z,22.66
2017-12-06T00:22:15.819Z,22.7
2017-12-06T00:22:28.967Z,22.75
2017-12-06T00:22:40.690Z,22.79
2017-12-06T00:22:53.865Z,22.78
2017-12-06T00:23:06.494Z,22.73
2017-12-06T00:23:20.547Z,22.82
2017-12-06T00:23:33.691Z,22.76
2017-12-06T00:23:46.377Z,22.75
2017-12-06T00:23:59.043Z,22.7
2017-12-06T00:24:10.748Z,22.69
2017-12-06T00:24:23.833Z,22.7
2017-12-06T00:24:36.912Z,22.75
2017-12-06T00:24:49.588Z,22.79
2017-12-06T00:25:02.221Z,22.76
2017-12-06T00:25:15.328Z,22.75
2017-12-06T00:25:28.489Z,22.76
2017-12-06T00:25:41.658Z,22.73
2017-12-06T00:25:54.319Z,22.7
2017-12-06T00:26:07.442Z,22.7
2017-12-06T00:26:20.603Z,22.7
2017-12-06T00:26:33.753Z,22.64
2017-12-06T00:26:46.431Z,22.66
2017-12-06T00:26:59.509Z,22.69
2017-12-06T00:27:12.169Z,22.64
2017-12-06T00:27:25.289Z,22.7
2017-12-06T00:27:38.407Z,22.64
2017-12-06T00:27:51.579Z,22.7
2017-12-06T00:28:04.786Z,22.64
2017-12-06T00:28:17.402Z,22.57
2017-12-06T00:28:30.463Z,22.63
2017-12-06T00:28:43.632Z,22.59
2017-12-06T00:28:56.293Z,22.64
2017-12-06T00:29:08.530Z,22.63
2017-12-06T00:29:21.711Z,22.57
2017-12-06T00:29:34.841Z,22.57
2017-12-06T00:29:47.973Z,22.64
2017-12-06T00:30:00.633Z,22.6
2017-12-06T00:30:12.870Z,22.54
2017-12-06T00:30:25.977Z,22.59
2017-12-06T00:30:38.647Z,22.57
2017-12-06T00:30:51.828Z,22.59
2017-12-06T00:31:04.058Z,22.61
2017-12-06T00:31:16.778Z,22.63
2017-12-06T00:31:29.975Z,22.66
2017-12-06T00:31:43.221Z,22.6
2017-12-06T00:31:56.304Z,22.69
2017-12-06T00:32:09.437Z,22.64
2017-12-06T00:32:22.664Z,22.64
2017-12-06T00:32:35.880Z,22.61
2017-12-06T00:32:49.125Z,22.64
2017-12-06T00:33:01.835Z,22.61
2017-12-06T00:33:14.518Z,22.7
2017-12-06T00:33:27.653Z,22.7
2017-12-06T00:33:40.826Z,22.69
2017-12-06T00:33:54.100Z,22.73
2017-12-06T00:34:06.870Z,22.67
2017-12-06T00:34:19.609Z,22.81
2017-12-06T00:34:32.796Z,22.73
2017-12-06T00:34:45.547Z,22.73
2017-12-06T00:34:58.742Z,22.67
2017-12-06T00:35:11.996Z,22.67
2017-12-06T00:35:24.998Z,22.81
2017-12-06T00:35:37.739Z,22.78
2017-12-06T00:35:50.891Z,22.78
2017-12-06T00:36:03.638Z,22.76
2017-12-06T00:36:16.481Z,22.67
2017-12-06T00:36:29.244Z,22.54
2017-12-06T00:36:42.000Z,22.59
2017-12-06T00:36:54.828Z,22.6
2017-12-06T00:37:07.132Z,22.54
2017-12-06T00:37:19.910Z,22.51
2017-12-06T00:37:32.748Z,22.52
2017-12-06T00:37:45.984Z,22.52
2017-12-06T00:37:59.289Z,22.52
2017-12-06T00:38:12.784Z,22.48
2017-12-06T00:38:25.990Z,22.52
2017-12-06T00:38:39.384Z,22.52
2017-12-06T00:38:52.678Z,22.51
2017-12-06T00:39:06.026Z,22.57
2017-12-06T00:39:19.210Z,22.52
2017-12-06T00:39:32.463Z,22.55
2017-12-06T00:39:45.723Z,22.52
2017-12-06T00:39:58.522Z,22.57
2017-12-06T00:40:11.299Z,22.57
2017-12-06T00:40:24.855Z,22.63
2017-12-06T00:40:38.179Z,22.57
2017-12-06T00:40:51.448Z,22.48
2017-12-06T00:41:04.742Z,22.51
2017-12-06T00:41:18.141Z,22.52
2017-12-06T00:41:31.483Z,22.52
2017-12-06T00:41:44.829Z,22.51
2017-12-06T00:41:58.101Z,22.51
2017-12-06T00:42:11.504Z,22.48
2017-12-06T00:42:23.866Z,22.51
2017-12-06T00:42:37.200Z,22.52
2017-12-06T00:42:50.562Z,22.49
2017-12-06T00:43:03.414Z,22.55
2017-12-06T00:43:16.759Z,22.52
2017-12-06T00:43:29.601Z,22.46
2017-12-06T00:43:43.072Z,22.48
2017-12-06T00:43:55.798Z,22.46
2017-12-06T00:44:09.146Z,22.49
2017-12-06T00:44:22.442Z,22.51
2017-12-06T00:44:35.670Z,22.63
2017-12-06T00:44:48.962Z,22.51
2017-12-06T00:45:01.795Z,22.66
2017-12-06T00:45:14.628Z,22.69
2017-12-06T00:45:27.914Z,22.64
2017-12-06T00:45:41.291Z,22.67
2017-12-06T00:45:54.185Z,22.71
2017-12-06T00:46:07.585Z,22.73
2017-12-06T00:46:21.095Z,22.67
2017-12-06T00:46:34.217Z,22.67
2017-12-06T00:46:47.595Z,22.78
2017-12-06T00:47:00.848Z,22.76
2017-12-06T00:47:14.218Z,22.7
2017-12-06T00:47:27.108Z,22.7
2017-12-06T00:47:39.814Z,22.71
2017-12-06T00:47:52.529Z,22.75
2017-12-06T00:48:05.377Z,22.79
2017-12-06T00:48:18.982Z,22.67
2017-12-06T00:48:32.299Z,22.76
2017-12-06T00:48:45.017Z,22.75
2017-12-06T00:48:58.395Z,22.81
2017-12-06T00:49:11.733Z,22.71
2017-12-06T00:49:24.518Z,22.69
2017-12-06T00:49:37.367Z,22.63
2017-12-06T00:49:50.251Z,22.66
2017-12-06T00:50:03.470Z,22.66
2017-12-06T00:50:16.304Z,22.59
2017-12-06T00:50:28.592Z,22.59
2017-12-06T00:50:41.422Z,22.54
2017-12-06T00:50:54.705Z,22.59
2017-12-06T00:51:07.924Z,22.57
2017-12-06T00:51:22.801Z,22.55
2017-12-06T00:51:35.532Z,22.57
2017-12-06T00:51:48.720Z,22.54
2017-12-06T00:52:01.453Z,22.57
2017-12-06T00:52:14.679Z,22.61
2017-12-06T00:52:26.497Z,22.52
2017-12-06T00:52:39.699Z,22.6
2017-12-06T00:52:53.074Z,22.6
2017-12-06T00:53:06.317Z,22.49
2017-12-06T00:53:20.270Z,22.57
2017-12-06T00:53:33.485Z,22.6
2017-12-06T00:53:46.644Z,22.61
2017-12-06T00:53:59.876Z,22.57
2017-12-06T00:54:12.145Z,22.52
2017-12-06T00:54:25.368Z,22.59
2017-12-06T00:54:38.633Z,22.59
2017-12-06T00:54:51.819Z,22.59
2017-12-06T00:55:04.017Z,22.61
2017-12-06T00:55:17.182Z,22.59
2017-12-06T00:55:29.888Z,22.6
2017-12-06T00:55:43.068Z,22.54
2017-12-06T00:55:56.268Z,22.57
2017-12-06T00:56:09.467Z,22.66
2017-12-06T00:56:22.699Z,22.61
2017-12-06T00:56:35.483Z,22.61
2017-12-06T00:56:48.170Z,22.59
2017-12-06T00:57:01.349Z,22.6
2017-12-06T00:57:13.607Z,22.66
2017-12-06T00:57:25.799Z,22.67
2017-12-06T00:57:39.010Z,22.59
2017-12-06T00:57:52.245Z,22.66
2017-12-06T00:58:05.437Z,22.67
2017-12-06T00:58:17.710Z,22.69
2017-12-06T00:58:30.451Z,22.71
2017-12-06T00:58:44.695Z,22.69
2017-12-06T00:58:57.385Z,22.69
2017-12-06T00:59:10.559Z,22.64
2017-12-06T00:59:23.706Z,22.66
2017-12-06T00:59:36.923Z,22.7
2017-12-06T00:59:49.549Z,22.66
2017-12-06T01:00:02.712Z,22.66
2017-12-06T01:00:15.418Z,22.67
2017-12-06T01:00:28.586Z,22.69
2017-12-06T01:00:41.764Z,22.66
2017-12-06T01:00:54.520Z,22.66
2017-12-06T01:01:07.176Z,22.69
2017-12-06T01:01:19.401Z,22.63
2017-12-06T01:01:32.093Z,22.67
2017-12-06T01:01:44.767Z,22.64
2017-12-06T01:01:58.163Z,22.59
2017-12-06T01:02:10.368Z,22.57
2017-12-06T01:02:23.483Z,22.59
2017-12-06T01:02:36.185Z,22.59
2017-12-06T01:02:49.311Z,22.52
2017-12-06T01:03:02.469Z,22.6
2017-12-06T01:03:15.643Z,22.51
2017-12-06T01:03:28.308Z,22.6
2017-12-06T01:03:41.003Z,22.6
2017-12-06T01:03:54.151Z,22.51
2017-12-06T01:04:07.308Z,22.59
2017-12-06T01:04:20.474Z,22.54
2017-12-06T01:04:33.140Z,22.57
2017-12-06T01:04:46.275Z,22.57
2017-12-06T01:04:59.388Z,22.54
2017-12-06T01:05:12.521Z,22.55
2017-12-06T01:05:25.601Z,22.52
2017-12-06T01:05:38.284Z,22.49
2017-12-06T01:05:51.655Z,22.49
2017-12-06T01:06:04.753Z,22.51
2017-12-06T01:06:17.395Z,22.49
2017-12-06T01:06:30.079Z,22.48
2017-12-06T01:06:42.717Z,22.52
2017-12-06T01:06:55.802Z,22.54
2017-12-06T01:07:08.455Z,22.48
2017-12-06T01:07:21.295Z,22.59
2017-12-06T01:07:33.963Z,22.52
2017-12-06T01:07:47.092Z,22.54
2017-12-06T01:08:00.140Z,22.51
2017-12-06T01:08:12.894Z,22.39
2017-12-06T01:08:25.764Z,22.51
2017-12-06T01:08:38.899Z,22.49
2017-12-06T01:08:51.995Z,22.51
2017-12-06T01:09:05.125Z,22.51
2017-12-06T01:09:18.272Z,22.44
2017-12-06T01:09:30.872Z,22.42
2017-12-06T01:09:43.964Z,22.44
2017-12-06T01:09:57.350Z,22.38
2017-12-06T01:10:09.950Z,22.44
2017-12-06T01:10:23.035Z,22.36
2017-12-06T01:10:35.585Z,22.27
2017-12-06T01:10:48.249Z,22.29
2017-12-06T01:11:00.895Z,22.31
2017-12-06T01:11:13.991Z,22.33
2017-12-06T01:11:26.640Z,22.31
2017-12-06T01:11:39.743Z,22.39
2017-12-06T01:11:52.346Z,22.3
2017-12-06T01:12:05.419Z,22.36
2017-12-06T01:12:18.535Z,22.3
2017-12-06T01:12:31.203Z,22.33
2017-12-06T01:12:43.382Z,22.41
2017-12-06T01:12:56.493Z,22.27
2017-12-06T01:13:09.586Z,22.29
2017-12-06T01:13:22.734Z,22.42
2017-12-06T01:13:35.840Z,22.33
2017-12-06T01:13:48.016Z,22.29
2017-12-06T01:14:01.129Z,22.34
2017-12-06T01:14:14.216Z,22.41
2017-12-06T01:14:27.364Z,22.33
2017-12-06T01:14:40.405Z,22.39
2017-12-06T01:14:53.025Z,22.33
2017-12-06T01:15:05.217Z,22.3
2017-12-06T01:15:18.313Z,22.31
2017-12-06T01:15:31.433Z,22.36
2017-12-06T01:15:44.057Z,22.33
2017-12-06T01:15:57.181Z,22.27
2017-12-06T01:16:10.267Z,22.36
2017-12-06T01:16:23.353Z,22.33
2017-12-06T01:16:36.038Z,22.27
2017-12-06T01:16:49.117Z,22.33
2017-12-06T01:17:01.741Z,22.31
2017-12-06T01:17:14.816Z,22.31
2017-12-06T01:17:27.931Z,22.27
2017-12-06T01:17:41.067Z,22.3
2017-12-06T01:17:54.230Z,22.36
2017-12-06T01:18:06.864Z,22.41
2017-12-06T01:18:19.988Z,22.31
2017-12-06T01:18:33.313Z,22.31
2017-12-06T01:18:46.434Z,22.29
2017-12-06T01:18:59.568Z,22.29
2017-12-06T01:19:12.281Z,22.3
2017-12-06T01:19:25.400Z,22.36
2017-12-06T01:19:38.522Z,22.44
2017-12-06T01:19:51.619Z,22.29
2017-12-06T01:20:04.690Z,22.33
2017-12-06T01:20:17.382Z,22.44
2017-12-06T01:20:30.477Z,22.31
2017-12-06T01:20:43.627Z,22.39
2017-12-06T01:20:56.749Z,22.34
2017-12-06T01:21:09.854Z,22.3
2017-12-06T01:21:22.908Z,22.29
2017-12-06T01:21:35.965Z,22.39
2017-12-06T01:21:50.506Z,22.44
2017-12-06T01:22:03.616Z,22.42
2017-12-06T01:22:16.783Z,22.34
2017-12-06T01:22:29.445Z,22.39
2017-12-06T01:22:42.024Z,22.42
2017-12-06T01:22:54.626Z,22.46
2017-12-06T01:23:07.692Z,22.44
2017-12-06T01:23:20.738Z,22.42
2017-12-06T01:23:34.637Z,22.42
2017-12-06T01:23:47.703Z,22.42
2017-12-06T01:24:00.320Z,22.36
2017-12-06T01:24:13.449Z,22.38
2017-12-06T01:24:26.565Z,22.42
2017-12-06T01:24:39.669Z,22.33
2017-12-06T01:24:52.272Z,22.33
2017-12-06T01:25:05.338Z,22.36
2017-12-06T01:25:17.984Z,22.42
2017-12-06T01:25:31.089Z,22.33
2017-12-06T01:25:43.230Z,22.33
2017-12-06T01:25:55.928Z,22.34
2017-12-06T01:26:08.587Z,22.36
2017-12-06T01:26:21.214Z,22.33
2017-12-06T01:26:34.249Z,22.3
2017-12-06T01:26:46.902Z,22.3
2017-12-06T01:27:00.008Z,22.31
2017-12-06T01:27:12.666Z,22.3
2017-12-06T01:27:25.295Z,22.31
2017-12-06T01:27:38.390Z,22.33
2017-12-06T01:27:51.514Z,22.31
2017-12-06T01:28:04.654Z,22.31
2017-12-06T01:28:17.683Z,22.27
2017-12-06T01:28:30.776Z,22.36
2017-12-06T01:28:43.430Z,22.3
2017-12-06T01:28:56.543Z,22.33
2017-12-06T01:29:09.701Z,22.31
2017-12-06T01:29:22.859Z,22.27
2017-12-06T01:29:35.960Z,22.26
2017-12-06T01:29:49.043Z,22.3
2017-12-06T01:30:02.153Z,22.3
2017-12-06T01:30:14.767Z,22.31
2017-12-06T01:30:27.473Z,22.27
2017-12-06T01:30:40.560Z,22.31
2017-12-06T01:30:53.656Z,22.2
2017-12-06T01:31:06.797Z,22.26
2017-12-06T01:31:18.930Z,22.41
2017-12-06T01:31:31.564Z,22.36
2017-12-06T01:31:44.182Z,22.29
2017-12-06T01:31:57.248Z,22.33
2017-12-06T01:32:09.880Z,22.34
2017-12-06T01:32:23.015Z,22.33
2017-12-06T01:32:36.101Z,22.38
2017-12-06T01:32:48.285Z,22.31
2017-12-06T01:33:01.376Z,22.3
2017-12-06T01:33:14.447Z,22.39
2017-12-06T01:33:27.564Z,22.33
2017-12-06T01:33:40.642Z,22.34
2017-12-06T01:33:53.773Z,22.29
2017-12-06T01:34:06.927Z,22.3
2017-12-06T01:34:19.985Z,22.31
2017-12-06T01:34:32.627Z,22.3
2017-12-06T01:34:45.247Z,22.3
2017-12-06T01:34:58.354Z,22.27
2017-12-06T01:35:11.520Z,22.26
2017-12-06T01:35:24.667Z,22.27
2017-12-06T01:35:37.268Z,22.24
2017-12-06T01:35:50.388Z,22.36
2017-12-06T01:36:03.027Z,22.3
2017-12-06T01:36:15.208Z,22.27
2017-12-06T01:36:28.314Z,22.38
2017-12-06T01:36:41.519Z,22.38
2017-12-06T01:36:54.698Z,22.39
2017-12-06T01:37:07.875Z,22.31
2017-12-06T01:37:21.074Z,22.36
2017-12-06T01:37:33.755Z,22.3
2017-12-06T01:37:46.496Z,22.31
2017-12-06T01:37:59.820Z,22.3
2017-12-06T01:38:13.136Z,22.26
2017-12-06T01:38:25.982Z,22.33
2017-12-06T01:38:39.947Z,22.33
2017-12-06T01:38:52.629Z,22.36
2017-12-06T01:39:05.805Z,22.33
2017-12-06T01:39:19.182Z,22.42
2017-12-06T01:39:32.031Z,22.31
2017-12-06T01:39:44.905Z,22.41
2017-12-06T01:39:58.261Z,22.42
2017-12-06T01:40:11.578Z,22.31
2017-12-06T01:40:24.324Z,22.33
2017-12-06T01:40:37.016Z,22.31
2017-12-06T01:40:50.244Z,22.31
2017-12-06T01:41:03.483Z,22.31
2017-12-06T01:41:16.748Z,22.29
2017-12-06T01:41:30.007Z,22.3
2017-12-06T01:41:42.864Z,22.3
2017-12-06T01:41:55.724Z,22.36
2017-12-06T01:42:09.042Z,22.29
2017-12-06T01:42:21.878Z,22.29
2017-12-06T01:42:35.197Z,22.24
2017-12-06T01:42:48.593Z,22.29
2017-12-06T01:43:01.952Z,22.27
2017-12-06T01:43:15.295Z,22.34
2017-12-06T01:43:28.112Z,22.29
2017-12-06T01:43:41.608Z,22.27
2017-12-06T01:43:54.270Z,22.27
2017-12-06T01:44:07.672Z,22.31
2017-12-06T01:44:20.658Z,22.31
2017-12-06T01:44:34.175Z,22.29
2017-12-06T01:44:46.491Z,22.34
2017-12-06T01:44:59.836Z,22.26
2017-12-06T01:45:12.219Z,22.26
2017-12-06T01:45:25.175Z,22.2
2017-12-06T01:45:38.573Z,22.27
2017-12-06T01:45:51.354Z,22.08
2017-12-06T01:46:04.787Z,22.22
2017-12-06T01:46:18.199Z,22.23
2017-12-06T01:46:31.026Z,22.22
2017-12-06T01:46:44.430Z,22.23
2017-12-06T01:46:57.835Z,22.16
2017-12-06T01:47:10.874Z,22.24
2017-12-06T01:47:24.269Z,22.2
2017-12-06T01:47:37.607Z,22.15
2017-12-06T01:47:50.444Z,22.2
2017-12-06T01:48:03.876Z,22.18
2017-12-06T01:48:17.280Z,22.14
2017-12-06T01:48:30.791Z,22.15
2017-12-06T01:48:44.536Z,22.24
2017-12-06T01:48:57.768Z,22.18
2017-12-06T01:49:11.433Z,22.16
2017-12-06T01:49:24.685Z,22.2
2017-12-06T01:49:37.797Z,22.16
2017-12-06T01:49:50.944Z,22.22
2017-12-06T01:50:03.704Z,22.18
2017-12-06T01:50:16.899Z,22.22
2017-12-06T01:50:30.122Z,22.16
2017-12-06T01:50:43.351Z,22.18
2017-12-06T01:50:56.460Z,22.22
2017-12-06T01:51:09.707Z,22.23
2017-12-06T01:51:22.860Z,22.2
2017-12-06T01:51:36.004Z,22.18
2017-12-06T01:51:49.185Z,22.18
2017-12-06T01:52:02.538Z,22.14
2017-12-06T01:52:15.219Z,22.18
2017-12-06T01:52:28.380Z,22.2
2017-12-06T01:52:41.518Z,22.23
2017-12-06T01:52:54.636Z,22.22
2017-12-06T01:53:07.789Z,22.2
2017-12-06T01:53:20.470Z,22.18
2017-12-06T01:53:33.668Z,22.15
2017-12-06T01:53:46.915Z,22.14
2017-12-06T01:54:00.043Z,22.15
2017-12-06T01:54:12.227Z,22.15
2017-12-06T01:54:25.332Z,22.2
2017-12-06T01:54:38.479Z,22.16
2017-12-06T01:54:51.069Z,22.18
2017-12-06T01:55:04.201Z,22.2
2017-12-06T01:55:17.280Z,22.18
2017-12-06T01:55:30.345Z,22.24
2017-12-06T01:55:42.464Z,22.23
2017-12-06T01:55:55.096Z,22.2
2017-12-06T01:56:07.695Z,22.23
2017-12-06T01:56:20.773Z,22.18
2017-12-06T01:56:33.415Z,22.16
2017-12-06T01:56:46.565Z,22.23
2017-12-06T01:56:59.647Z,22.23
2017-12-06T01:57:12.253Z,22.27
2017-12-06T01:57:25.328Z,22.16
2017-12-06T01:57:38.472Z,22.18
2017-12-06T01:57:51.611Z,22.2
2017-12-06T01:58:04.301Z,22.2
2017-12-06T01:58:17.470Z,22.15
2017-12-06T01:58:30.098Z,22.24
2017-12-06T01:58:42.709Z,22.14
2017-12-06T01:58:55.792Z,22.16
2017-12-06T01:59:08.451Z,22.11
2017-12-06T01:59:21.591Z,22.07
2017-12-06T01:59:34.665Z,22.14
2017-12-06T01:59:47.755Z,22.05
2017-12-06T02:00:00.862Z,22.04
2017-12-06T02:00:14.038Z,21.94
2017-12-06T02:00:27.188Z,22.02
2017-12-06T02:00:40.333Z,22
2017-12-06T02:00:53.433Z,21.96
2017-12-06T02:01:06.508Z,22.02
2017-12-06T02:01:19.624Z,21.99
2017-12-06T02:01:32.268Z,21.96
2017-12-06T02:01:45.375Z,21.93
2017-12-06T02:01:57.956Z,22.04
2017-12-06T02:02:10.060Z,21.96
2017-12-06T02:02:22.682Z,21.93
2017-12-06T02:02:35.798Z,21.94
2017-12-06T02:02:48.455Z,21.9
2017-12-06T02:03:01.103Z,21.99
2017-12-06T02:03:14.229Z,21.93
2017-12-06T02:03:26.884Z,21.94
2017-12-06T02:03:40.025Z,21.92
2017-12-06T02:03:52.618Z,21.9
2017-12-06T02:04:05.796Z,21.9
2017-12-06T02:04:18.982Z,21.85
2017-12-06T02:04:32.135Z,21.93
2017-12-06T02:04:45.314Z,21.9
2017-12-06T02:04:58.543Z,21.92
2017-12-06T02:05:11.693Z,21.9
2017-12-06T02:05:24.877Z,21.89
2017-12-06T02:05:37.996Z,21.83
2017-12-06T02:05:51.141Z,21.89
2017-12-06T02:06:04.226Z,21.85
2017-12-06T02:06:17.447Z,21.76
2017-12-06T02:06:30.624Z,21.77
2017-12-06T02:06:43.278Z,21.89
2017-12-06T02:06:56.064Z,21.83
2017-12-06T02:07:08.722Z,21.9
2017-12-06T02:07:21.960Z,21.83
2017-12-06T02:07:35.197Z,21.89
2017-12-06T02:07:47.496Z,21.89
2017-12-06T02:08:00.697Z,21.89
2017-12-06T02:08:14.078Z,21.89
2017-12-06T02:08:27.395Z,21.86
2017-12-06T02:08:40.222Z,21.92
2017-12-06T02:08:53.481Z,21.85
2017-12-06T02:09:06.291Z,21.93
2017-12-06T02:09:19.665Z,21.92
2017-12-06T02:09:32.753Z,21.89
2017-12-06T02:09:45.896Z,21.85
2017-12-06T02:09:58.997Z,21.9
2017-12-06T02:10:11.656Z,21.89
2017-12-06T02:10:24.732Z,21.92
2017-12-06T02:10:37.873Z,21.92
2017-12-06T02:10:51.061Z,21.9
2017-12-06T02:11:03.711Z,21.94
2017-12-06T02:11:16.789Z,21.92
2017-12-06T02:11:29.515Z,21.85
2017-12-06T02:11:42.663Z,21.86
2017-12-06T02:11:55.770Z,21.92
2017-12-06T02:12:08.921Z,21.85
2017-12-06T02:12:21.596Z,21.89
2017-12-06T02:12:34.698Z,21.86
2017-12-06T02:12:47.924Z,21.89
2017-12-06T02:13:01.011Z,21.89
2017-12-06T02:13:14.128Z,21.92
2017-12-06T02:13:26.746Z,21.83
2017-12-06T02:13:38.905Z,21.86
2017-12-06T02:13:52.015Z,21.9
2017-12-06T02:14:05.056Z,21.9
2017-12-06T02:14:18.111Z,21.9
2017-12-06T02:14:31.216Z,21.93
2017-12-06T02:14:44.333Z,21.96
2017-12-06T02:14:57.402Z,21.97
2017-12-06T02:15:10.501Z,21.86
2017-12-06T02:15:23.622Z,21.9
2017-12-06T02:15:36.771Z,21.82
2017-12-06T02:15:49.376Z,21.96
2017-12-06T02:16:02.444Z,21.85
2017-12-06T02:16:15.053Z,21.94
2017-12-06T02:16:46.916Z,21.85
2017-12-06T02:16:59.536Z,21.93
2017-12-06T02:17:12.199Z,21.93
2017-12-06T02:17:24.798Z,21.94
2017-12-06T02:17:37.909Z,21.94
2017-12-06T02:17:51.002Z,21.9
2017-12-06T02:18:23.304Z,21.83
2017-12-06T02:18:38.968Z,21.97
2017-12-06T02:18:52.157Z,21.97
2017-12-06T02:19:18.071Z,21.93
2017-12-06T02:19:31.139Z,21.93
2017-12-06T02:19:44.308Z,21.94
2017-12-06T02:19:56.930Z,21.89
2017-12-06T02:20:09.554Z,21.96
2017-12-06T02:20:22.604Z,21.96
2017-12-06T02:20:35.168Z,22
2017-12-06T02:20:47.815Z,21.9
2017-12-06T02:21:00.953Z,21.93
2017-12-06T02:21:14.085Z,21.97
2017-12-06T02:21:26.803Z,22.05
2017-12-06T02:21:39.443Z,22.04
2017-12-06T02:21:52.545Z,22.04
2017-12-06T02:22:05.622Z,22.05
2017-12-06T02:22:21.312Z,22.05
2017-12-06T02:22:34.419Z,22.12
2017-12-06T02:22:47.568Z,22.11
2017-12-06T02:23:00.213Z,22.04
2017-12-06T02:23:13.363Z,22.15
2017-12-06T02:23:27.416Z,22.14
2017-12-06T02:23:40.513Z,22.12
2017-12-06T02:23:54.359Z,22.12
2017-12-06T02:24:07.466Z,22.11
2017-12-06T02:24:20.116Z,22.14
2017-12-06T02:24:33.216Z,22.08
2017-12-06T02:24:45.875Z,22.18
2017-12-06T02:24:58.962Z,22.11
2017-12-06T02:25:11.596Z,22.08
2017-12-06T02:25:24.256Z,22.08
2017-12-06T02:25:37.345Z,22.09
2017-12-06T02:25:50.491Z,22.11
2017-12-06T02:26:03.086Z,22.08
2017-12-06T02:26:16.197Z,22.07
2017-12-06T02:26:28.848Z,22.07
2017-12-06T02:26:41.954Z,22.07
2017-12-06T02:26:55.046Z,22.09
2017-12-06T02:27:08.182Z,22.05
2017-12-06T02:27:21.281Z,22.05
2017-12-06T02:27:34.435Z,22.07
2017-12-06T02:27:47.634Z,22.05
2017-12-06T02:28:00.217Z,22.05
2017-12-06T02:28:12.856Z,22.05
2017-12-06T02:28:26.010Z,22.07
2017-12-06T02:28:39.102Z,22.05
2017-12-06T02:28:52.202Z,22.07
2017-12-06T02:29:05.520Z,22.08
2017-12-06T02:29:18.601Z,22.09
2017-12-06T02:29:31.693Z,22.15
2017-12-06T02:29:44.857Z,22.15
2017-12-06T02:29:57.936Z,22.18
2017-12-06T02:30:11.014Z,22.2
2017-12-06T02:30:24.113Z,22.18
2017-12-06T02:30:37.224Z,22.08
2017-12-06T02:30:50.347Z,22.14
2017-12-06T02:31:02.992Z,22.14
2017-12-06T02:31:16.146Z,22.12
2017-12-06T02:31:29.235Z,22.11
2017-12-06T02:31:42.342Z,22.14
2017-12-06T02:31:55.489Z,22.07
2017-12-06T02:32:08.627Z,22.18
2017-12-06T02:32:20.739Z,22.09
2017-12-06T02:32:33.846Z,22.08
2017-12-06T02:32:46.460Z,22.18
2017-12-06T02:32:59.574Z,22.05
2017-12-06T02:33:11.715Z,22.12
2017-12-06T02:33:24.792Z,22.12
2017-12-06T02:33:37.923Z,22.09
2017-12-06T02:33:51.049Z,22.09
2017-12-06T02:34:03.733Z,22.05
2017-12-06T02:34:16.869Z,22.11
2017-12-06T02:34:29.944Z,22.07
2017-12-06T02:34:42.561Z,22.12
2017-12-06T02:34:55.633Z,22.09
2017-12-06T02:35:07.777Z,22.09
2017-12-06T02:35:20.855Z,22.11
2017-12-06T02:35:33.055Z,22.07
2017-12-06T02:35:45.688Z,22.08
2017-12-06T02:35:58.800Z,22.07
2017-12-06T02:36:11.962Z,22.15
2017-12-06T02:36:25.072Z,22.16
2017-12-06T02:36:38.214Z,22.09
2017-12-06T02:36:50.838Z,22.07
2017-12-06T02:37:03.592Z,22.09
2017-12-06T02:37:16.203Z,22.07
2017-12-06T02:37:29.254Z,22.09
2017-12-06T02:37:41.879Z,22.14
2017-12-06T02:37:55.017Z,22.16
2017-12-06T02:38:07.751Z,22.2
2017-12-06T02:38:20.366Z,22.07
2017-12-06T02:38:32.948Z,22.07
2017-12-06T02:38:46.057Z,22.14
2017-12-06T02:39:00.189Z,22.08
2017-12-06T02:39:12.842Z,22.11
2017-12-06T02:39:25.998Z,22.12
2017-12-06T02:39:39.113Z,22.16
2017-12-06T02:39:52.226Z,22.07
2017-12-06T02:40:05.347Z,22.12
2017-12-06T02:40:18.478Z,22.12
2017-12-06T02:40:31.761Z,22.05
2017-12-06T02:40:44.830Z,22.09
2017-12-06T02:40:57.940Z,22.07
2017-12-06T02:41:11.121Z,22.08
2017-12-06T02:41:24.196Z,22.04
2017-12-06T02:41:37.310Z,22.02
2017-12-06T02:41:50.442Z,22.09
2017-12-06T02:42:03.072Z,22.05
2017-12-06T02:42:15.213Z,22.05
2017-12-06T02:42:27.895Z,22.07
2017-12-06T02:42:40.998Z,22.08
2017-12-06T02:42:54.092Z,22.08
2017-12-06T02:43:06.741Z,22.15
2017-12-06T02:43:19.888Z,22.11
2017-12-06T02:43:32.972Z,22.11
2017-12-06T02:43:45.532Z,22.11
2017-12-06T02:43:58.627Z,22.07
2017-12-06T02:44:11.861Z,22.07
2017-12-06T02:44:24.537Z,22.04
2017-12-06T02:44:37.673Z,22.02
2017-12-06T02:44:50.852Z,22.05
2017-12-06T02:45:04.084Z,22.11
2017-12-06T02:45:16.236Z,22.08
2017-12-06T02:45:29.300Z,22.08
2017-12-06T02:45:41.935Z,22.05
2017-12-06T02:45:55.033Z,22.14
2017-12-06T02:46:08.120Z,22.07
2017-12-06T02:46:21.326Z,22.11
2017-12-06T02:46:33.964Z,22.08
2017-12-06T02:46:47.064Z,22.07
2017-12-06T02:47:00.200Z,22.14
2017-12-06T02:47:12.410Z,22.09
2017-12-06T02:47:25.537Z,22.16
2017-12-06T02:47:38.693Z,22.18
2017-12-06T02:47:51.836Z,22.08
2017-12-06T02:48:04.947Z,22.14
2017-12-06T02:48:17.687Z,22.16
2017-12-06T02:48:30.781Z,22.22
2017-12-06T02:48:43.367Z,22.15